sensor_id;sensor_type;location;lat;lon;timestamp;P1;durP1;ratioP1;P2;durP2;ratioP2
71162;SDS011;58858;50.948;6.566;2023-07-31T00:07:29;6.05;;;3.50;;
71162;SDS011;58858;50.948;6.566;2023-07-31T00:17:30;7.32;;;3.28;;
71162;SDS011;58858;50.948;6.566;2023-07-31T00:27:31;6.20;;;2.95;;
71162;SDS011;58858;50.948;6.566;2023-07-31T00:37:32;5.78;;;2.30;;
71162;SDS011;58858;50.948;6.566;2023-07-31T00:47:33;12.27;;;3.33;;
71162;SDS011;58858;50.948;6.566;2023-07-31T00:57:34;4.75;;;2.72;;
71162;SDS011;58858;50.948;6.566;2023-07-31T01:07:40;7.00;;;2.83;;
71162;SDS011;58858;50.948;6.566;2023-07-31T01:18:05;6.50;;;3.05;;
71162;SDS011;58858;50.948;6.566;2023-07-31T01:28:08;6.85;;;3.30;;
71162;SDS011;58858;50.948;6.566;2023-07-31T01:38:11;6.32;;;3.08;;
71162;SDS011;58858;50.948;6.566;2023-07-31T01:48:13;5.75;;;3.08;;
71162;SDS011;58858;50.948;6.566;2023-07-31T01:58:14;6.65;;;3.33;;
71162;SDS011;58858;50.948;6.566;2023-07-31T02:08:15;7.60;;;3.05;;
71162;SDS011;58858;50.948;6.566;2023-07-31T02:18:16;7.70;;;2.90;;
71162;SDS011;58858;50.948;6.566;2023-07-31T02:28:17;12.55;;;3.08;;
71162;SDS011;58858;50.948;6.566;2023-07-31T02:38:19;6.45;;;3.17;;
71162;SDS011;58858;50.948;6.566;2023-07-31T02:48:20;7.00;;;3.05;;
71162;SDS011;58858;50.948;6.566;2023-07-31T02:58:21;10.95;;;3.22;;
71162;SDS011;58858;50.948;6.566;2023-07-31T03:08:22;8.48;;;3.47;;
71162;SDS011;58858;50.948;6.566;2023-07-31T03:18:24;6.18;;;2.42;;
71162;SDS011;58858;50.948;6.566;2023-07-31T03:28:25;9.43;;;3.42;;
71162;SDS011;58858;50.948;6.566;2023-07-31T03:38:26;7.15;;;3.53;;
71162;SDS011;58858;50.948;6.566;2023-07-31T03:48:28;20.35;;;4.03;;
71162;SDS011;58858;50.948;6.566;2023-07-31T03:58:29;6.97;;;3.15;;
71162;SDS011;58858;50.948;6.566;2023-07-31T04:08:30;10.55;;;4.53;;
71162;SDS011;58858;50.948;6.566;2023-07-31T04:18:31;10.95;;;4.13;;
71162;SDS011;58858;50.948;6.566;2023-07-31T04:28:32;8.00;;;3.70;;
71162;SDS011;58858;50.948;6.566;2023-07-31T04:38:34;9.57;;;4.38;;
71162;SDS011;58858;50.948;6.566;2023-07-31T04:48:35;10.30;;;4.00;;
71162;SDS011;58858;50.948;6.566;2023-07-31T04:58:36;4.82;;;2.90;;
71162;SDS011;58858;50.948;6.566;2023-07-31T05:08:37;7.80;;;3.45;;
71162;SDS011;58858;50.948;6.566;2023-07-31T05:18:38;7.53;;;3.08;;
71162;SDS011;58858;50.948;6.566;2023-07-31T05:28:39;4.15;;;2.78;;
71162;SDS011;58858;50.948;6.566;2023-07-31T05:38:40;8.98;;;3.17;;
71162;SDS011;58858;50.948;6.566;2023-07-31T05:48:41;6.18;;;2.75;;
71162;SDS011;58858;50.948;6.566;2023-07-31T05:58:42;6.00;;;2.63;;
71162;SDS011;58858;50.948;6.566;2023-07-31T06:08:43;10.70;;;2.97;;
71162;SDS011;58858;50.948;6.566;2023-07-31T06:18:44;4.95;;;2.58;;
71162;SDS011;58858;50.948;6.566;2023-07-31T06:28:45;6.43;;;2.80;;
71162;SDS011;58858;50.948;6.566;2023-07-31T06:38:47;7.35;;;3.33;;
71162;SDS011;58858;50.948;6.566;2023-07-31T06:48:48;4.60;;;2.45;;
71162;SDS011;58858;50.948;6.566;2023-07-31T06:58:50;8.95;;;2.90;;
71162;SDS011;58858;50.948;6.566;2023-07-31T07:08:51;5.43;;;2.75;;
71162;SDS011;58858;50.948;6.566;2023-07-31T07:18:52;5.00;;;2.70;;
71162;SDS011;58858;50.948;6.566;2023-07-31T07:28:53;8.00;;;3.10;;
71162;SDS011;58858;50.948;6.566;2023-07-31T07:38:54;5.18;;;3.05;;
71162;SDS011;58858;50.948;6.566;2023-07-31T07:48:55;9.38;;;2.85;;
71162;SDS011;58858;50.948;6.566;2023-07-31T07:58:56;5.63;;;2.33;;
71162;SDS011;58858;50.948;6.566;2023-07-31T08:08:57;11.02;;;2.60;;
71162;SDS011;58858;50.948;6.566;2023-07-31T08:18:59;5.20;;;2.60;;
71162;SDS011;58858;50.948;6.566;2023-07-31T08:29:00;5.05;;;2.65;;
71162;SDS011;58858;50.948;6.566;2023-07-31T08:39:01;7.57;;;2.72;;
71162;SDS011;58858;50.948;6.566;2023-07-31T08:49:04;8.15;;;3.30;;
71162;SDS011;58858;50.948;6.566;2023-07-31T08:59:06;5.25;;;2.20;;
71162;SDS011;58858;50.948;6.566;2023-07-31T09:09:07;6.85;;;2.47;;
71162;SDS011;58858;50.948;6.566;2023-07-31T09:19:09;8.32;;;2.88;;
71162;SDS011;58858;50.948;6.566;2023-07-31T09:29:19;6.53;;;2.72;;
71162;SDS011;58858;50.948;6.566;2023-07-31T09:39:20;6.20;;;2.08;;
71162;SDS011;58858;50.948;6.566;2023-07-31T09:49:21;4.10;;;2.45;;
71162;SDS011;58858;50.948;6.566;2023-07-31T09:59:25;4.17;;;2.33;;
71162;SDS011;58858;50.948;6.566;2023-07-31T10:09:26;8.07;;;2.90;;
71162;SDS011;58858;50.948;6.566;2023-07-31T10:19:31;6.93;;;2.22;;
71162;SDS011;58858;50.948;6.566;2023-07-31T10:29:33;10.80;;;2.20;;
71162;SDS011;58858;50.948;6.566;2023-07-31T10:39:37;4.38;;;2.38;;
71162;SDS011;58858;50.948;6.566;2023-07-31T10:49:39;5.78;;;1.67;;
71162;SDS011;58858;50.948;6.566;2023-07-31T10:59:40;2.42;;;1.10;;
71162;SDS011;58858;50.948;6.566;2023-07-31T11:09:42;1.83;;;0.95;;
71162;SDS011;58858;50.948;6.566;2023-07-31T11:19:43;1.95;;;0.80;;
71162;SDS011;58858;50.948;6.566;2023-07-31T11:29:44;0.93;;;0.50;;
71162;SDS011;58858;50.948;6.566;2023-07-31T11:39:58;3.13;;;0.65;;
71162;SDS011;58858;50.948;6.566;2023-07-31T11:50:03;2.85;;;1.10;;
71162;SDS011;58858;50.948;6.566;2023-07-31T12:00:07;4.53;;;1.30;;
71162;SDS011;58858;50.948;6.566;2023-07-31T12:10:10;6.80;;;2.35;;
71162;SDS011;58858;50.948;6.566;2023-07-31T12:20:11;5.55;;;1.98;;
71162;SDS011;58858;50.948;6.566;2023-07-31T12:40:37;1.88;;;1.65;;
71162;SDS011;58858;50.948;6.566;2023-07-31T13:00:40;3.00;;;1.95;;
71162;SDS011;58858;50.948;6.566;2023-07-31T13:10:42;3.55;;;2.25;;
71162;SDS011;58858;50.948;6.566;2023-07-31T13:20:43;4.22;;;2.03;;
71162;SDS011;58858;50.948;6.566;2023-07-31T13:30:44;4.07;;;1.33;;
71162;SDS011;58858;50.948;6.566;2023-07-31T13:40:46;2.00;;;1.55;;
71162;SDS011;58858;50.948;6.566;2023-07-31T13:50:47;4.15;;;1.75;;
71162;SDS011;58858;50.948;6.566;2023-07-31T14:00:48;3.15;;;1.85;;
71162;SDS011;58858;50.948;6.566;2023-07-31T14:10:49;7.13;;;2.13;;
71162;SDS011;58858;50.948;6.566;2023-07-31T14:20:51;6.40;;;3.17;;
71162;SDS011;58858;50.948;6.566;2023-07-31T14:30:52;4.43;;;2.78;;
71162;SDS011;58858;50.948;6.566;2023-07-31T14:40:53;4.85;;;2.65;;
71162;SDS011;58858;50.948;6.566;2023-07-31T14:50:54;5.50;;;2.40;;
71162;SDS011;58858;50.948;6.566;2023-07-31T15:00:55;5.55;;;2.80;;
71162;SDS011;58858;50.948;6.566;2023-07-31T15:10:56;3.67;;;2.75;;
71162;SDS011;58858;50.948;6.566;2023-07-31T15:20:59;6.68;;;3.70;;
71162;SDS011;58858;50.948;6.566;2023-07-31T15:31:00;7.95;;;3.85;;
71162;SDS011;58858;50.948;6.566;2023-07-31T15:41:01;6.68;;;2.92;;
71162;SDS011;58858;50.948;6.566;2023-07-31T15:51:02;4.63;;;2.80;;
71162;SDS011;58858;50.948;6.566;2023-07-31T16:01:03;4.07;;;2.63;;
71162;SDS011;58858;50.948;6.566;2023-07-31T16:11:05;4.57;;;2.67;;
71162;SDS011;58858;50.948;6.566;2023-07-31T16:21:06;3.33;;;2.17;;
71162;SDS011;58858;50.948;6.566;2023-07-31T16:31:07;2.08;;;1.63;;
71162;SDS011;58858;50.948;6.566;2023-07-31T16:41:08;2.30;;;1.83;;
71162;SDS011;58858;50.948;6.566;2023-07-31T16:51:09;3.05;;;1.38;;
71162;SDS011;58858;50.948;6.566;2023-07-31T17:01:10;2.22;;;1.17;;
71162;SDS011;58858;50.948;6.566;2023-07-31T17:11:11;2.90;;;1.00;;
71162;SDS011;58858;50.948;6.566;2023-07-31T17:21:13;1.98;;;1.20;;
71162;SDS011;58858;50.948;6.566;2023-07-31T17:31:14;1.73;;;1.25;;
71162;SDS011;58858;50.948;6.566;2023-07-31T17:41:15;1.70;;;1.30;;
71162;SDS011;58858;50.948;6.566;2023-07-31T17:51:16;2.92;;;0.90;;
71162;SDS011;58858;50.948;6.566;2023-07-31T18:01:17;3.13;;;0.95;;
71162;SDS011;58858;50.948;6.566;2023-07-31T18:11:18;0.65;;;0.65;;
71162;SDS011;58858;50.948;6.566;2023-07-31T18:21:21;1.33;;;0.57;;
71162;SDS011;58858;50.948;6.566;2023-07-31T18:31:22;1.35;;;0.52;;
71162;SDS011;58858;50.948;6.566;2023-07-31T18:41:23;0.93;;;0.68;;
71162;SDS011;58858;50.948;6.566;2023-07-31T18:51:24;1.13;;;0.82;;
71162;SDS011;58858;50.948;6.566;2023-07-31T19:01:25;1.45;;;0.60;;
71162;SDS011;58858;50.948;6.566;2023-07-31T19:11:26;0.82;;;0.55;;
71162;SDS011;58858;50.948;6.566;2023-07-31T19:21:27;4.63;;;1.02;;
71162;SDS011;58858;50.948;6.566;2023-07-31T19:31:29;2.15;;;0.70;;
71162;SDS011;58858;50.948;6.566;2023-07-31T19:41:30;1.25;;;0.50;;
71162;SDS011;58858;50.948;6.566;2023-07-31T19:51:31;1.90;;;0.40;;
71162;SDS011;58858;50.948;6.566;2023-07-31T20:01:32;0.43;;;0.40;;
71162;SDS011;58858;50.948;6.566;2023-07-31T20:11:33;2.17;;;0.50;;
71162;SDS011;58858;50.948;6.566;2023-07-31T20:21:34;1.08;;;0.40;;
71162;SDS011;58858;50.948;6.566;2023-07-31T20:31:38;1.27;;;1.17;;
71162;SDS011;58858;50.948;6.566;2023-07-31T20:41:40;0.80;;;0.43;;
71162;SDS011;58858;50.948;6.566;2023-07-31T20:51:43;1.55;;;0.60;;
71162;SDS011;58858;50.948;6.566;2023-07-31T21:01:44;0.55;;;0.20;;
71162;SDS011;58858;50.948;6.566;2023-07-31T21:11:45;0.45;;;0.28;;
71162;SDS011;58858;50.948;6.566;2023-07-31T21:21:46;3.22;;;0.30;;
71162;SDS011;58858;50.948;6.566;2023-07-31T21:31:47;1.00;;;0.75;;
71162;SDS011;58858;50.948;6.566;2023-07-31T21:41:48;4.70;;;1.58;;
71162;SDS011;58858;50.948;6.566;2023-07-31T21:51:49;0.68;;;0.10;;
71162;SDS011;58858;50.948;6.566;2023-07-31T22:01:50;1.77;;;0.30;;
71162;SDS011;58858;50.948;6.566;2023-07-31T22:11:52;2.22;;;0.30;;
71162;SDS011;58858;50.948;6.566;2023-07-31T22:21:53;0.20;;;0.17;;
71162;SDS011;58858;50.948;6.566;2023-07-31T22:31:54;0.47;;;0.20;;
71162;SDS011;58858;50.948;6.566;2023-07-31T22:41:55;3.42;;;0.20;;
71162;SDS011;58858;50.948;6.566;2023-07-31T22:51:56;1.63;;;0.10;;
71162;SDS011;58858;50.948;6.566;2023-07-31T23:01:57;1.20;;;0.13;;
71162;SDS011;58858;50.948;6.566;2023-07-31T23:11:58;1.38;;;0.10;;
71162;SDS011;58858;50.948;6.566;2023-07-31T23:21:59;1.42;;;0.30;;
71162;SDS011;58858;50.948;6.566;2023-07-31T23:32:00;0.03;;;0.00;;
71162;SDS011;58858;50.948;6.566;2023-07-31T23:42:01;2.45;;;0.15;;
71162;SDS011;58858;50.948;6.566;2023-07-31T23:52:02;0.47;;;0.10;;
